Time;durP1;ratioP1;P1;durP2;ratioP2;P2;SDS_P1;SDS_P2;PMS_P1;PMS_P2;Temp;Humidity;BMP_temperature;BMP_pressure;BME280_temperature;BME280_humidity;BME280_pressure;Samples;Min_cycle;Max_cycle;Signal;HPM_P1;HPM_P2
2022/10/11 00:00:23;;;;;;;14.63;3.97;;;;;;;6.36;100.00;102578.44;5027421;28;20476;-62
2022/10/11 00:02:48;;;;;;;21.73;4.40;;;;;;;6.36;100.00;102576.72;5029329;28;20064;-62
2022/10/11 00:05:13;;;;;;;19.15;3.60;;;;;;;6.31;100.00;102579.28;5041448;28;20148;-62
2022/10/11 00:07:39;;;;;;;16.45;3.90;;;;;;;6.30;100.00;102589.72;5046968;28;20025;-63
2022/10/11 00:10:05;;;;;;;19.42;3.30;;;;;;;6.27;100.00;102581.84;5046773;28;20059;-61
2022/10/11 00:12:31;;;;;;;9.40;3.45;;;;;;;6.24;100.00;102587.03;5044442;28;20116;-63
2022/10/11 00:14:56;;;;;;;11.48;3.33;;;;;;;6.23;100.00;102594.00;5027889;28;20121;-60
2022/10/11 00:17:22;;;;;;;18.13;3.95;;;;;;;6.21;100.00;102593.13;5026654;28;20049;-61
2022/10/11 00:19:47;;;;;;;19.88;3.60;;;;;;;6.26;100.00;102593.19;5027505;28;20037;-64
2022/10/11 00:22:13;;;;;;;12.68;3.53;;;;;;;6.34;100.00;102588.00;5027754;28;20511;-63
2022/10/11 00:24:38;;;;;;;16.52;3.22;;;;;;;6.40;100.00;102593.31;5028411;28;20036;-61
2022/10/11 00:27:03;;;;;;;19.00;3.90;;;;;;;6.42;100.00;102597.72;5033488;28;20448;-62
2022/10/11 00:29:29;;;;;;;11.88;3.47;;;;;;;6.45;100.00;102599.50;5027940;28;20025;-62
2022/10/11 00:31:54;;;;;;;11.57;3.15;;;;;;;6.43;100.00;102591.63;5026116;28;20030;-63
2022/10/11 00:34:19;;;;;;;13.57;3.25;;;;;;;6.41;100.00;102601.19;5029757;28;20543;-60
2022/10/11 00:36:45;;;;;;;13.25;3.17;;;;;;;6.43;100.00;102598.59;5033442;28;20029;-62
2022/10/11 00:39:10;;;;;;;14.50;3.45;;;;;;;6.43;100.00;102601.22;5030918;28;20018;-61
2022/10/11 00:41:36;;;;;;;15.95;4.18;;;;;;;6.45;100.00;102608.22;5030491;28;20094;-63
2022/10/11 00:44:19;;;;;;;19.20;3.58;;;;;;;6.52;100.00;102603.97;5031944;28;20025;-61
2022/10/11 00:46:52;;;;;;;15.95;3.92;;;;;;;6.52;100.00;102608.31;5030482;28;20029;-62
2022/10/11 00:49:34;;;;;;;10.25;3.08;;;;;;;6.44;100.00;102608.22;5032394;28;20024;-62
2022/10/11 00:52:12;;;;;;;13.32;2.80;;;;;;;6.37;100.00;102606.38;5013276;28;20182;-62
2022/10/11 00:54:40;;;;;;;9.70;2.80;;;;;;;6.30;100.00;102614.16;5029015;28;20040;-62
2022/10/11 00:57:07;;;;;;;11.70;2.63;;;;;;;6.27;100.00;102614.16;5028854;28;20488;-62
2022/10/11 00:59:35;;;;;;;11.85;3.08;;;;;;;6.28;100.00;102615.00;5029929;28;20032;-65
2022/10/11 01:02:02;;;;;;;12.55;2.78;;;;;;;6.27;100.00;102610.63;5030812;28;20029;-60
2022/10/11 01:04:27;;;;;;;18.42;3.40;;;;;;;6.27;100.00;102611.53;5036091;28;20056;-61
2022/10/11 01:06:53;;;;;;;11.75;3.38;;;;;;;6.28;100.00;102615.00;5050978;28;20021;-62
2022/10/11 01:09:20;;;;;;;18.20;3.78;;;;;;;6.30;100.00;102611.53;5050411;28;20061;-62
2022/10/11 01:11:46;;;;;;;14.60;3.00;;;;;;;6.27;100.00;102613.25;5051021;28;20808;-63
2022/10/11 01:14:30;;;;;;;14.65;3.00;;;;;;;6.23;100.00;102617.56;5033290;28;20036;-63
2022/10/11 01:17:29;;;;;;;8.38;2.65;;;;;;;6.18;100.00;102616.63;5049629;28;20085;-63
2022/10/11 01:20:14;;;;;;;;;;;;;;;6.15;100.00;102620.09;5076213;28;20025;-61
2022/10/11 01:23:17;;;;;;;13.38;3.17;;;;;;;6.08;100.00;102626.06;5049066;28;19948;-62
2022/10/11 01:26:10;;;;;;;16.73;2.83;;;;;;;6.11;100.00;102622.66;5050345;28;20063;-63
2022/10/11 01:28:41;;;;;;;17.75;3.25;;;;;;;6.24;100.00;102629.81;5032875;28;20025;-63
2022/10/11 01:31:19;;;;;;;15.23;3.50;;;;;;;6.29;100.00;102628.13;5028686;28;20065;-62
2022/10/11 01:33:51;;;;;;;19.58;3.75;;;;;;;6.27;100.00;102631.59;5028927;28;20055;-62
2022/10/11 01:36:33;;;;;;;14.98;3.10;;;;;;;6.23;100.00;102632.41;5031021;28;20080;-61
2022/10/11 01:39:03;;;;;;;11.35;2.88;;;;;;;6.16;100.00;102626.19;5029603;28;20045;-62
2022/10/11 01:41:39;;;;;;;17.00;3.03;;;;;;;6.10;100.00;102631.34;5030994;28;20030;-62
2022/10/11 01:44:05;;;;;;;13.68;3.60;;;;;;;6.05;100.00;102626.94;5030228;28;20029;-62
2022/10/11 01:46:32;;;;;;;5.68;2.63;;;;;;;6.03;100.00;102632.97;5029221;28;20029;-62
2022/10/11 01:48:59;;;;;;;11.35;2.88;;;;;;;5.98;100.00;102632.91;5029673;28;20025;-62
2022/10/11 01:51:29;;;;;;;13.40;2.55;;;;;;;5.99;100.00;102639.03;5043476;28;20609;-62
2022/10/11 01:54:09;;;;;;;16.25;2.78;;;;;;;5.99;100.00;102639.88;5048973;28;20578;-63
2022/10/11 01:56:37;;;;;;;22.42;3.05;;;;;;;6.05;100.00;102640.00;5034452;28;20044;-63
2022/10/11 01:59:08;;;;;;;15.38;2.70;;;;;;;6.16;100.00;102637.56;5029954;28;20022;-64
2022/10/11 02:01:49;;;;;;;11.13;3.05;;;;;;;6.22;100.00;102639.38;5027572;28;20215;-62
2022/10/11 02:05:11;;;;;;;19.33;2.83;;;;;;;6.27;100.00;102645.56;5029987;28;20041;-62
2022/10/11 02:07:45;;;;;;;16.75;3.97;;;;;;;6.33;100.00;102634.28;4952921;28;20124;-64
2022/10/11 02:10:16;;;;;;;17.02;3.22;;;;;;;6.29;100.00;102638.59;4982764;28;20081;-60
2022/10/11 02:12:45;;;;;;;13.55;2.65;;;;;;;6.21;100.00;102632.38;5022542;28;20099;-61
2022/10/11 02:15:12;;;;;;;13.38;3.25;;;;;;;6.12;100.00;102634.88;5047724;28;20083;-63
2022/10/11 02:17:48;;;;;;;9.10;2.05;;;;;;;6.08;100.00;102628.69;5047524;28;20025;-63
2022/10/11 02:20:18;;;;;;;17.58;3.08;;;;;;;6.05;100.00;102629.53;5048541;28;20028;-63
2022/10/11 02:22:46;;;;;;;8.48;2.50;;;;;;;6.02;100.00;102636.44;5045673;28;20051;-61
2022/10/11 02:25:19;;;;;;;15.32;2.78;;;;;;;5.98;100.00;102629.41;5065793;28;20049;-61
2022/10/11 02:27:46;;;;;;;6.78;2.45;;;;;;;5.94;100.00;102631.97;5027449;28;20028;-62
2022/10/11 02:30:12;;;;;;;14.88;4.00;;;;;;;5.94;100.00;102634.56;5028105;28;20037;-63
2022/10/11 02:32:39;;;;;;;6.22;2.60;;;;;;;5.90;100.00;102630.16;5028996;28;20029;-62
2022/10/11 02:35:05;;;;;;;18.42;3.13;;;;;;;5.88;100.00;102636.25;5031263;28;20025;-63
2022/10/11 02:37:46;;;;;;;18.45;3.42;;;;;;;5.87;100.00;102626.66;5030721;28;20116;-62
2022/10/11 02:40:23;;;;;;;12.00;2.88;;;;;;;5.81;100.00;102641.38;5028771;28;20029;-62
2022/10/11 02:42:53;;;;;;;8.73;2.72;;;;;;;5.79;100.00;102643.09;5027345;28;20033;-62
2022/10/11 02:45:23;;;;;;;;;;;;;;;5.74;100.00;102634.28;5029399;28;20029;-62
2022/10/11 02:47:48;;;;;;;7.60;2.53;;;;;;;5.73;100.00;102640.41;5065724;28;19917;-62
2022/10/11 02:50:14;;;;;;;6.57;2.53;;;;;;;5.71;100.00;102636.88;5047649;28;20025;-62
2022/10/11 02:52:39;;;;;;;12.57;2.67;;;;;;;5.68;100.00;102634.19;5040816;28;20056;-62
2022/10/11 02:55:05;;;;;;;16.00;2.78;;;;;;;5.63;100.00;102635.88;5028356;28;20087;-63
2022/10/11 02:57:31;;;;;;;15.93;3.17;;;;;;;5.61;100.00;102642.81;5026876;28;20077;-62
2022/10/11 02:59:56;;;;;;;14.73;3.72;;;;;;;5.68;100.00;102639.44;5026694;28;20464;-62
2022/10/11 03:02:21;;;;;;;14.43;3.70;;;;;;;5.72;100.00;102645.59;5028953;28;20068;-61
2022/10/11 03:04:47;;;;;;;16.40;2.95;;;;;;;5.72;100.00;102643.84;5029215;28;20021;-61
2022/10/11 03:07:13;;;;;;;11.32;2.65;;;;;;;5.70;100.00;102645.56;5032960;28;20388;-61
2022/10/11 03:09:38;;;;;;;11.02;2.50;;;;;;;5.65;100.00;102644.59;5028070;28;20025;-60
2022/10/11 03:12:04;;;;;;;9.13;2.42;;;;;;;5.62;100.00;102649.78;5028339;28;20034;-62
2022/10/11 03:14:29;;;;;;;6.60;2.88;;;;;;;5.64;100.00;102648.09;5028158;28;20040;-62
2022/10/11 03:16:54;;;;;;;11.25;3.13;;;;;;;5.64;100.00;102646.38;5028838;28;20033;-61
2022/10/11 03:19:20;;;;;;;11.75;2.50;;;;;;;5.63;100.00;102651.56;5032907;28;20040;-62
2022/10/11 03:21:45;;;;;;;11.40;2.55;;;;;;;5.60;100.00;102647.16;5028733;28;20045;-63
2022/10/11 03:24:11;;;;;;;9.82;2.70;;;;;;;5.59;100.00;102655.84;5027064;28;20026;-63
2022/10/11 03:26:36;;;;;;;9.32;3.10;;;;;;;5.66;100.00;102649.00;5028667;28;20538;-63
2022/10/11 03:29:02;;;;;;;11.32;2.92;;;;;;;5.74;100.00;102654.34;5027122;28;20477;-63
2022/10/11 03:31:27;;;;;;;12.07;2.90;;;;;;;5.76;100.00;102653.53;5028490;28;20092;-63
2022/10/11 03:33:52;;;;;;;13.00;2.75;;;;;;;5.79;100.00;102660.53;5029051;28;20372;-62
2022/10/11 03:36:18;;;;;;;12.52;2.72;;;;;;;5.89;100.00;102658.94;5027891;28;20091;-61
2022/10/11 03:38:43;;;;;;;19.25;3.20;;;;;;;5.96;100.00;102654.69;5027995;28;20033;-61
2022/10/11 03:41:08;;;;;;;16.58;3.33;;;;;;;5.96;100.00;102659.91;5028586;28;20120;-63
2022/10/11 03:43:34;;;;;;;11.48;3.08;;;;;;;5.93;100.00;102659.00;5029455;28;20033;-62
2022/10/11 03:45:59;;;;;;;10.80;2.92;;;;;;;5.89;100.00;102657.19;5029967;28;20083;-63
2022/10/11 03:48:25;;;;;;;17.88;3.40;;;;;;;5.90;100.00;102664.19;5028376;28;20151;-64
2022/10/11 03:50:50;;;;;;;11.38;3.17;;;;;;;5.93;100.00;102666.00;5028125;28;20045;-61
2022/10/11 03:53:16;;;;;;;9.77;3.17;;;;;;;5.97;100.00;102667.78;5031565;28;20029;-62
2022/10/11 03:55:41;;;;;;;17.02;2.97;;;;;;;6.01;100.00;102664.34;5028681;28;20025;-63
2022/10/11 03:58:07;;;;;;;10.35;3.22;;;;;;;6.02;100.00;102665.25;5027761;28;20036;-60
2022/10/11 04:00:33;;;;;;;11.07;2.53;;;;;;;5.99;100.00;102665.19;5028797;28;20104;-62
2022/10/11 04:02:59;;;;;;;15.27;3.70;;;;;;;5.96;100.00;102666.00;5028734;28;20027;-62
2022/10/11 04:05:24;;;;;;;12.05;3.17;;;;;;;5.93;100.00;102660.75;5039274;28;20056;-62
2022/10/11 04:07:50;;;;;;;13.10;3.03;;;;;;;5.90;100.00;102665.94;5050620;28;20484;-62
2022/10/11 04:10:15;;;;;;;13.70;3.67;;;;;;;5.84;100.00;102671.06;5051653;28;20029;-61
2022/10/11 04:12:41;;;;;;;11.75;3.42;;;;;;;5.77;100.00;102670.09;5051015;28;20041;-61
2022/10/11 04:15:07;;;;;;;15.05;3.00;;;;;;;5.75;100.00;102674.44;5051923;28;20028;-62
2022/10/11 04:17:32;;;;;;;12.10;2.95;;;;;;;5.82;100.00;102666.69;5049756;28;20052;-62
2022/10/11 04:19:57;;;;;;;9.43;3.10;;;;;;;5.79;100.00;102661.44;5045570;28;20061;-61
2022/10/11 04:22:23;;;;;;;10.75;2.63;;;;;;;5.78;100.00;102672.72;5045818;28;20029;-61
2022/10/11 04:24:48;;;;;;;10.60;2.50;;;;;;;5.79;100.00;102679.72;5032948;28;20032;-60
2022/10/11 04:27:14;;;;;;;7.45;2.83;;;;;;;5.82;100.00;102676.28;5045254;28;20464;-64
2022/10/11 04:29:39;;;;;;;19.75;2.70;;;;;;;5.81;100.00;102685.00;5044263;28;20101;-65
2022/10/11 04:32:04;;;;;;;9.35;2.90;;;;;;;5.81;100.00;102682.38;5035797;28;20029;-64
2022/10/11 04:34:30;;;;;;;8.82;2.72;;;;;;;5.84;100.00;102681.53;5042126;28;20032;-63
2022/10/11 04:36:55;;;;;;;12.15;3.17;;;;;;;5.86;100.00;102679.81;5036304;28;20057;-62
2022/10/11 04:39:21;;;;;;;19.27;3.72;;;;;;;5.88;100.00;102684.22;5037790;28;20446;-62
2022/10/11 04:41:46;;;;;;;7.57;2.92;;;;;;;5.88;100.00;102685.97;5038168;28;20060;-62
2022/10/11 04:44:12;;;;;;;13.75;3.50;;;;;;;5.87;100.00;102694.66;5037781;28;20125;-61
2022/10/11 04:46:37;;;;;;;21.65;3.47;;;;;;;5.85;100.00;102689.41;5031794;28;20072;-63
2022/10/11 04:49:02;;;;;;;15.73;3.15;;;;;;;5.83;100.00;102685.88;5035644;28;20017;-62
2022/10/11 04:51:28;;;;;;;17.48;3.45;;;;;;;5.85;100.00;102692.03;5031298;28;20076;-62
2022/10/11 04:53:53;;;;;;;14.55;3.25;;;;;;;5.85;100.00;102697.25;5030570;28;20025;-65
2022/10/11 04:56:19;;;;;;;14.82;2.97;;;;;;;5.93;100.00;102697.38;5033199;28;20459;-63
2022/10/11 04:58:46;;;;;;;10.35;2.75;;;;;;;5.93;100.00;102698.25;5048568;28;20029;-63
2022/10/11 05:01:12;;;;;;;15.20;3.20;;;;;;;5.96;100.00;102694.78;5041781;28;20124;-63
2022/10/11 05:03:37;;;;;;;12.20;3.67;;;;;;;6.01;100.00;102700.09;5050188;28;20527;-63
2022/10/11 05:06:03;;;;;;;20.58;3.53;;;;;;;6.04;100.00;102694.94;5050068;28;20028;-63
2022/10/11 05:08:29;;;;;;;14.57;3.08;;;;;;;6.10;100.00;102696.78;5050300;28;20154;-61
2022/10/11 05:11:04;;;;;;;14.88;3.15;;;;;;;6.14;100.00;102693.38;5050608;28;20029;-61
2022/10/11 05:13:30;;;;;;;13.60;3.90;;;;;;;6.17;100.00;102698.66;5049022;28;20040;-62
2022/10/11 05:15:56;;;;;;;17.35;3.28;;;;;;;6.22;100.00;102698.69;5038938;28;20033;-63
2022/10/11 05:18:22;;;;;;;12.30;3.22;;;;;;;6.25;100.00;102702.25;5050032;28;20087;-61
2022/10/11 05:20:47;;;;;;;14.90;3.42;;;;;;;6.27;100.00;102699.66;5049258;28;20071;-62
2022/10/11 05:23:13;;;;;;;18.08;3.45;;;;;;;6.30;100.00;102697.94;5051101;28;20029;-62
2022/10/11 05:25:38;;;;;;;16.98;3.00;;;;;;;6.37;100.00;102705.88;5050953;28;20036;-62
2022/10/11 05:28:04;;;;;;;19.10;3.33;;;;;;;6.43;100.00;102711.22;5038542;28;20044;-62
2022/10/11 05:30:29;;;;;;;20.30;3.78;;;;;;;6.50;100.00;102712.19;5029618;28;20036;-62
2022/10/11 05:32:54;;;;;;;14.18;3.15;;;;;;;6.55;100.00;102715.72;5028300;28;20029;-62
2022/10/11 05:35:20;;;;;;;16.20;3.67;;;;;;;6.57;100.00;102721.88;5030373;28;20032;-62
2022/10/11 05:37:45;;;;;;;11.95;3.38;;;;;;;6.58;100.00;102723.63;5030481;28;20021;-62
2022/10/11 05:40:11;;;;;;;15.32;3.40;;;;;;;6.61;100.00;102725.41;5030918;28;20053;-61
2022/10/11 05:42:36;;;;;;;19.25;3.50;;;;;;;6.63;100.00;102715.84;5031100;28;20108;-63
2022/10/11 05:45:03;;;;;;;17.30;3.72;;;;;;;6.69;100.00;102726.41;5029072;28;20065;-62
2022/10/11 05:47:29;;;;;;;18.02;3.70;;;;;;;6.75;100.00;102721.25;5028965;28;20026;-62
2022/10/11 05:49:54;;;;;;;20.67;3.30;;;;;;;6.78;100.00;102731.78;5030499;28;20040;-60
2022/10/11 05:52:20;;;;;;;10.77;3.05;;;;;;;6.80;100.00;102730.03;5046011;28;20083;-62
2022/10/11 05:54:46;;;;;;;13.88;3.22;;;;;;;6.83;100.00;102744.91;5033879;28;20029;-64
2022/10/11 05:57:12;;;;;;;9.93;3.55;;;;;;;6.79;100.00;102730.91;5028467;28;20071;-62
2022/10/11 05:59:37;;;;;;;11.68;3.30;;;;;;;6.81;100.00;102737.03;5034865;28;20391;-63
2022/10/11 06:02:02;;;;;;;10.93;3.15;;;;;;;6.78;100.00;102737.00;5045852;28;20017;-61
2022/10/11 06:04:28;;;;;;;20.63;3.75;;;;;;;6.78;100.00;102738.75;5047322;28;20089;-63
2022/10/11 06:06:53;;;;;;;12.90;2.90;;;;;;;6.75;100.00;102742.22;5045172;28;20033;-63
2022/10/11 06:09:18;;;;;;;16.30;3.00;;;;;;;6.75;100.00;102749.19;5046012;28;20101;-63
2022/10/11 06:11:44;;;;;;;19.05;4.18;;;;;;;6.71;100.00;102740.38;5048537;28;20056;-63
2022/10/11 06:14:10;;;;;;;15.02;3.33;;;;;;;6.72;100.00;102736.94;5048428;28;20021;-62
2022/10/11 06:16:36;;;;;;;15.68;3.55;;;;;;;6.75;100.00;102747.44;5045811;28;20047;-63
2022/10/11 06:19:01;;;;;;;18.25;4.13;;;;;;;6.76;100.00;102743.06;5031230;28;20037;-63
2022/10/11 06:21:27;;;;;;;17.35;3.80;;;;;;;6.81;100.00;102747.50;5046761;28;20040;-61
2022/10/11 06:23:52;;;;;;;17.02;3.83;;;;;;;6.86;100.00;102749.31;5046693;28;20021;-63
2022/10/11 06:26:18;;;;;;;19.30;4.00;;;;;;;6.92;100.00;102747.63;5046832;28;20028;-63
2022/10/11 06:28:43;;;;;;;13.48;3.78;;;;;;;6.99;100.00;102750.34;5047806;28;20025;-63
2022/10/11 06:31:09;;;;;;;19.45;3.15;;;;;;;7.04;100.00;102760.00;5036714;28;20366;-62
2022/10/11 06:33:35;;;;;;;15.10;3.83;;;;;;;7.12;100.00;102759.22;5028524;28;20034;-63
2022/10/11 06:36:06;;;;;;;12.70;3.38;;;;;;;7.21;100.00;102761.97;5027553;28;20056;-61
2022/10/11 06:38:31;;;;;;;17.98;4.15;;;;;;;7.29;100.00;102769.91;5033992;28;20029;-62
2022/10/11 06:40:57;;;;;;;15.70;3.88;;;;;;;7.37;100.00;102767.38;5048365;28;20024;-61
2022/10/11 06:43:24;;;;;;;20.35;5.00;;;;;;;7.40;100.00;102763.03;5040862;28;20056;-61
2022/10/11 06:45:49;;;;;;;17.08;4.55;;;;;;;7.45;100.00;102771.84;5028401;28;20080;-63
2022/10/11 06:48:14;;;;;;;20.45;3.95;;;;;;;7.53;100.00;102771.91;5026329;28;20048;-62
2022/10/11 06:50:40;;;;;;;19.52;3.63;;;;;;;7.57;100.00;102773.72;5026132;28;20044;-61
2022/10/11 06:53:06;;;;;;;21.98;4.13;;;;;;;7.59;100.00;102771.97;5027581;28;20093;-63
2022/10/11 06:55:32;;;;;;;21.90;4.10;;;;;;;7.66;100.00;102775.53;5027433;28;20026;-63
2022/10/11 06:57:57;;;;;;;14.63;4.30;;;;;;;7.77;100.00;102777.38;5040524;28;20037;-62
2022/10/11 07:00:22;;;;;;;15.05;4.45;;;;;;;7.81;100.00;102777.44;5045862;28;20426;-62
2022/10/11 07:02:48;;;;;;;22.02;4.47;;;;;;;7.88;100.00;102780.97;5043876;28;20543;-63
2022/10/11 07:05:15;;;;;;;15.15;3.88;;;;;;;7.96;100.00;102789.81;5028377;28;20435;-61
2022/10/11 07:07:40;;;;;;;30.48;4.75;;;;;;;8.02;100.00;102781.09;5026576;28;20029;-61
2022/10/11 07:10:06;;;;;;;13.65;3.95;;;;;;;8.09;100.00;102790.78;5027413;28;20546;-63
2022/10/11 07:12:31;;;;;;;16.77;4.00;;;;;;;8.16;100.00;102790.84;5028063;28;20516;-62
2022/10/11 07:14:56;;;;;;;18.30;4.00;;;;;;;8.21;100.00;102790.00;5032301;28;20036;-61
2022/10/11 07:17:22;;;;;;;15.55;4.80;;;;;;;8.34;100.00;102796.22;5027383;28;20021;-62
2022/10/11 07:19:47;;;;;;;17.55;4.85;;;;;;;8.41;100.00;102793.63;5025999;28;20086;-61
2022/10/11 07:22:12;;;;;;;23.55;5.22;;;;;;;8.50;100.00;102790.19;5026993;28;20419;-62
2022/10/11 07:24:37;;;;;;;21.92;4.43;;;;;;;8.59;100.00;102796.44;5031033;28;20144;-61
2022/10/11 07:27:03;;;;;;;19.15;4.20;;;;;;;8.68;100.00;102787.72;5027458;28;20029;-61
2022/10/11 07:29:28;;;;;;;18.48;5.07;;;;;;;8.77;100.00;102800.03;5025907;28;20384;-62
2022/10/11 07:31:53;;;;;;;15.45;4.15;;;;;;;8.85;100.00;102802.66;5040791;28;20040;-61
2022/10/11 07:34:21;;;;;;;20.80;4.90;;;;;;;8.92;100.00;102803.59;5037659;28;20029;-63
2022/10/11 07:36:46;;;;;;;17.15;4.55;;;;;;;9.04;100.00;102806.28;5027799;28;20021;-64
2022/10/11 07:39:12;;;;;;;17.05;4.50;;;;;;;9.13;100.00;102808.06;5026484;28;20032;-63
2022/10/11 07:41:37;;;;;;;20.17;4.38;;;;;;;9.26;100.00;102811.63;5026611;28;20028;-62
2022/10/11 07:44:03;;;;;;;16.42;3.50;;;;;;;9.35;100.00;102803.75;5032936;28;20086;-63
2022/10/11 07:46:28;;;;;;;16.20;3.85;;;;;;;9.45;100.00;102804.66;5032625;28;20384;-63
2022/10/11 07:48:54;;;;;;;18.73;3.72;;;;;;;9.57;100.00;102808.22;5038997;28;20028;-62
2022/10/11 07:51:21;;;;;;;14.77;3.90;;;;;;;9.68;100.00;102805.56;5045986;28;20072;-64
2022/10/11 07:54:04;;;;;;;14.63;4.45;;;;;;;9.82;100.00;102813.50;5036031;28;20071;-64
2022/10/11 07:56:30;;;;;;;14.30;3.58;;;;;;;9.89;100.00;102814.38;5028049;28;20037;-63
2022/10/11 07:58:57;;;;;;;14.95;3.72;;;;;;;9.93;100.00;102805.63;5025862;28;20032;-63
2022/10/11 08:01:23;;;;;;;14.98;3.78;;;;;;;9.98;100.00;102815.28;5030548;28;20116;-62
2022/10/11 08:03:49;;;;;;;15.75;3.30;;;;;;;10.09;100.00;102819.66;5027131;28;20033;-62
2022/10/11 08:06:17;;;;;;;18.70;3.90;;;;;;;10.16;100.00;102821.41;5026564;28;20036;-62
2022/10/11 08:08:42;;;;;;;12.73;3.90;;;;;;;10.23;100.00;102811.72;5029013;28;20101;-62
2022/10/11 08:11:07;;;;;;;15.05;3.00;;;;;;;10.29;100.00;102811.72;5045553;28;20120;-62
2022/10/11 08:13:33;;;;;;;15.55;3.28;;;;;;;10.35;100.00;102816.13;5046418;28;20052;-62
2022/10/11 08:15:58;;;;;;;12.63;3.28;;;;;;;10.41;100.00;102824.00;5047366;28;20082;-62
2022/10/11 08:18:24;;;;;;;13.35;3.45;;;;;;;10.49;100.00;102824.94;5040267;28;20834;-62
2022/10/11 08:20:49;;;;;;;16.27;3.15;;;;;;;10.56;100.00;102827.53;5027820;28;20033;-62
2022/10/11 08:23:15;;;;;;;14.23;3.03;;;;;;;10.64;100.00;102830.16;5025191;28;20052;-62
2022/10/11 08:25:44;;;;;;;12.93;2.70;;;;;;;10.76;100.00;102827.50;5027268;28;20682;-62
2022/10/11 08:28:14;;;;;;;13.77;3.50;;;;;;;10.83;100.00;102831.88;5029957;28;20021;-63
2022/10/11 08:30:46;;;;;;;15.02;3.13;;;;;;;10.93;100.00;102831.84;5042410;28;20059;-63
2022/10/11 08:33:11;;;;;;;14.07;3.13;;;;;;;11.01;100.00;102835.34;5045992;28;20084;-61
2022/10/11 08:35:37;;;;;;;12.40;3.92;;;;;;;11.11;100.00;102837.03;5037462;28;20465;-62
2022/10/11 08:38:02;;;;;;;17.00;3.60;;;;;;;11.30;100.00;102844.00;5041915;28;20451;-63
2022/10/11 08:40:27;;;;;;;15.45;3.22;;;;;;;11.41;100.00;102843.97;5046133;28;20475;-64
2022/10/11 08:43:04;;;;;;;14.85;3.38;;;;;;;11.57;100.00;102845.63;5045388;28;20108;-63
2022/10/11 08:45:34;;;;;;;21.45;3.03;;;;;;;11.74;100.00;102842.03;5044643;28;20028;-61
2022/10/11 08:48:16;;;;;;;16.02;2.63;;;;;;;11.87;100.00;102846.31;5039764;28;20104;-61
2022/10/11 08:50:43;;;;;;;11.45;2.83;;;;;;;11.96;100.00;102852.44;5041665;28;20046;-62
2022/10/11 08:53:25;;;;;;;10.95;2.65;;;;;;;12.06;100.00;102858.50;5024349;28;20454;-61
2022/10/11 08:55:53;;;;;;;12.93;2.83;;;;;;;12.22;100.00;102848.75;5028882;28;20510;-62
2022/10/11 08:58:39;;;;;;;10.77;2.67;;;;;;;12.34;99.42;102843.31;5030190;28;20064;-61
2022/10/11 09:01:06;;;;;;;11.80;2.85;;;;;;;12.42;98.42;102851.19;5029617;28;20033;-61
2022/10/11 09:03:40;;;;;;;14.77;2.60;;;;;;;12.51;97.74;102852.88;5062333;28;20025;-62
2022/10/11 09:06:14;;;;;;;14.18;2.92;;;;;;;12.59;96.94;102853.69;5030231;28;20033;-63
2022/10/11 09:08:57;;;;;;;12.30;2.65;;;;;;;12.67;97.00;102855.38;5063790;28;20021;-61
2022/10/11 09:11:34;;;;;;;12.85;2.53;;;;;;;12.72;95.78;102858.81;5029931;28;20138;-61
2022/10/11 09:14:17;;;;;;;13.55;2.35;;;;;;;12.76;93.79;102864.06;5028494;28;20027;-62
2022/10/11 09:16:49;;;;;;;10.25;2.33;;;;;;;12.84;92.22;102857.81;5031651;28;20036;-60
2022/10/11 09:19:42;;;;;;;13.70;2.30;;;;;;;12.94;90.27;102855.97;5030262;28;20083;-61
2022/10/11 09:22:12;;;;;;;12.35;2.50;;;;;;;13.08;88.65;102854.03;5029333;28;20387;-61
2022/10/11 09:25:15;;;;;;;15.10;2.63;;;;;;;13.18;87.88;102857.41;5030008;28;20026;-60
2022/10/11 09:27:53;;;;;;;9.70;1.88;;;;;;;13.31;87.84;102852.88;5032033;28;20090;-61
2022/10/11 09:30:18;;;;;;;7.35;1.98;;;;;;;13.43;86.81;102861.53;5027231;28;20582;-61
2022/10/11 09:33:10;;;;;;;15.00;2.42;;;;;;;13.53;86.37;102860.53;5027625;28;20022;-62
2022/10/11 09:35:39;;;;;;;13.82;2.22;;;;;;;13.60;83.70;102864.84;5013142;28;20391;-62
2022/10/11 09:38:23;;;;;;;15.43;2.38;;;;;;;13.76;83.18;102860.19;5040658;28;20025;-65
2022/10/11 09:41:16;;;;;;;10.30;2.20;;;;;;;13.90;82.21;102862.63;5046842;28;20024;-62
2022/10/11 09:43:47;;;;;;;6.20;1.55;;;;;;;14.17;82.26;102861.34;5048421;28;20055;-62
2022/10/11 09:46:35;;;;;;;6.20;1.50;;;;;;;14.20;78.83;102861.28;5041774;28;20104;-60
2022/10/11 09:49:03;;;;;;;9.47;2.03;;;;;;;14.36;80.06;102859.25;5030127;28;20472;-61
2022/10/11 09:51:28;;;;;;;9.55;1.85;;;;;;;14.48;78.62;102858.16;5027993;28;20048;-61
2022/10/11 09:54:01;;;;;;;9.48;2.35;;;;;;;14.58;79.32;102859.75;5028079;28;20021;-61
2022/10/11 09:56:29;;;;;;;8.30;2.05;;;;;;;14.77;79.38;102865.56;5030596;28;20805;-62
2022/10/11 09:59:34;;;;;;;8.32;2.00;;;;;;;15.02;77.37;102858.94;5027755;28;20083;-63
2022/10/11 10:02:12;;;;;;;6.55;2.28;;;;;;;15.35;75.81;102867.09;5027192;28;20025;-63
2022/10/11 10:04:56;;;;;;;14.52;1.88;;;;;;;15.40;74.69;102859.91;5029813;28;20113;-61
2022/10/11 10:07:22;;;;;;;11.95;1.85;;;;;;;15.50;75.77;102859.69;5031062;28;20396;-60
2022/10/11 10:09:48;;;;;;;13.35;2.55;;;;;;;15.61;75.93;102862.97;5029132;28;20079;-61
2022/10/11 10:12:19;;;;;;;10.02;2.08;;;;;;;15.67;74.70;102861.97;5027574;28;20087;-61
2022/10/11 10:14:55;;;;;;;10.07;2.00;;;;;;;15.64;72.56;102862.91;5033436;28;20022;-60
2022/10/11 10:17:20;;;;;;;8.35;1.90;;;;;;;15.60;71.54;102863.00;5027773;28;20159;-62
2022/10/11 10:19:53;;;;;;;10.55;1.85;;;;;;;15.74;71.91;102857.38;5028422;28;20026;-61
2022/10/11 10:22:21;;;;;;;8.93;2.17;;;;;;;15.99;71.98;102854.16;5036396;28;20025;-63
2022/10/11 10:24:48;;;;;;;15.93;2.28;;;;;;;16.17;70.44;102856.34;5048171;28;20028;-62
2022/10/11 10:27:17;;;;;;;9.30;2.25;;;;;;;16.34;71.16;102851.53;5042582;28;20032;-62
2022/10/11 10:29:43;;;;;;;;;;;;;;;16.47;70.49;102857.38;5044535;28;20067;-60
2022/10/11 10:32:15;;;;;;;8.88;1.60;;;;;;;16.68;69.63;102848.81;5047646;28;19928;-62
2022/10/11 10:34:57;;;;;;;7.85;1.80;;;;;;;16.97;68.41;102840.03;5039692;28;20361;-61
2022/10/11 10:37:28;;;;;;;7.75;1.90;;;;;;;17.16;69.28;102846.59;5047777;28;20409;-61
2022/10/11 10:40:02;;;;;;;13.82;2.55;;;;;;;17.36;68.07;102847.78;5046456;28;20036;-60
2022/10/11 10:42:28;;;;;;;13.20;2.03;;;;;;;17.45;66.20;102853.78;5041057;28;20468;-62
2022/10/11 10:44:58;;;;;;;7.85;2.15;;;;;;;17.58;65.21;102847.09;5045134;28;20025;-61
2022/10/11 10:47:45;;;;;;;8.32;2.00;;;;;;;17.49;66.33;102847.41;5047230;28;20463;-62
2022/10/11 10:50:33;;;;;;;13.38;2.00;;;;;;;17.57;65.60;102844.53;5047120;28;20044;-62
2022/10/11 10:53:20;;;;;;;10.43;2.20;;;;;;;17.45;64.78;102848.44;5033992;28;20072;-61
2022/10/11 10:55:51;;;;;;;9.43;2.33;;;;;;;17.38;63.85;102835.31;5043755;28;20032;-62
2022/10/11 10:58:25;;;;;;;7.68;1.80;;;;;;;17.05;65.84;102851.34;5042632;28;20594;-60
2022/10/11 11:00:54;;;;;;;8.93;1.70;;;;;;;16.83;67.75;102845.78;5042212;28;20391;-61
2022/10/11 11:03:49;;;;;;;8.80;2.20;;;;;;;16.42;69.36;102845.09;5039137;28;20025;-61
2022/10/11 11:06:36;;;;;;;8.98;1.95;;;;;;;16.34;68.29;102844.41;5026545;28;20029;-62
2022/10/11 11:09:05;;;;;;;9.68;1.90;;;;;;;16.27;69.89;102842.81;5037666;28;20088;-62
2022/10/11 11:11:52;;;;;;;7.45;1.83;;;;;;;16.29;71.19;102843.66;5048440;28;20029;-61
2022/10/11 11:14:27;;;;;;;13.38;2.40;;;;;;;16.21;72.56;102845.63;5043652;28;20021;-62
2022/10/11 11:17:30;;;;;;;12.30;2.20;;;;;;;16.34;71.96;102835.56;5042861;28;20070;-61
2022/10/11 11:20:26;;;;;;;16.15;2.55;;;;;;;16.38;70.38;102835.41;5043536;28;20435;-61
2022/10/11 11:22:56;;;;;;;12.23;2.17;;;;;;;16.55;70.39;102844.72;5046504;28;20033;-61
2022/10/11 11:25:45;;;;;;;11.90;2.38;;;;;;;16.82;69.44;102836.03;5046593;28;20021;-62
2022/10/11 11:28:48;;;;;;;14.05;2.53;;;;;;;17.17;68.29;102839.50;5044291;28;20040;-61
2022/10/11 11:31:51;;;;;;;7.78;2.25;;;;;;;17.21;68.44;102826.94;5047579;28;20407;-63